sensor_id;sensor_type;location;lat;lon;timestamp;temperature;humidity
76537;DHT22;65381;51.254;15.592;2022-12-07T00:01:42;20.80;40.70
76537;DHT22;65381;51.254;15.592;2022-12-07T00:04:11;20.80;40.70
76537;DHT22;65381;51.254;15.592;2022-12-07T00:06:45;20.80;40.70
76537;DHT22;65381;51.254;15.592;2022-12-07T00:12:25;20.80;40.60
76537;DHT22;65381;51.254;15.592;2022-12-07T00:14:53;20.80;40.70
76537;DHT22;65381;51.254;15.592;2022-12-07T00:17:21;20.80;40.70
76537;DHT22;65381;51.254;15.592;2022-12-07T00:19:48;20.80;40.70
76537;DHT22;65381;51.254;15.592;2022-12-07T00:22:16;20.80;40.70
76537;DHT22;65381;51.254;15.592;2022-12-07T00:24:43;20.80;40.90
76537;DHT22;65381;51.254;15.592;2022-12-07T00:27:11;20.80;40.60
76537;DHT22;65381;51.254;15.592;2022-12-07T00:29:38;20.80;40.70
76537;DHT22;65381;51.254;15.592;2022-12-07T00:32:05;20.80;40.60
76537;DHT22;65381;51.254;15.592;2022-12-07T00:34:33;20.80;40.70
76537;DHT22;65381;51.254;15.592;2022-12-07T00:37:00;20.80;40.60
76537;DHT22;65381;51.254;15.592;2022-12-07T00:39:28;20.80;40.60
76537;DHT22;65381;51.254;15.592;2022-12-07T00:41:55;20.80;40.50
76537;DHT22;65381;51.254;15.592;2022-12-07T00:44:22;20.80;40.50
76537;DHT22;65381;51.254;15.592;2022-12-07T00:46:50;20.80;40.60
76537;DHT22;65381;51.254;15.592;2022-12-07T00:49:17;20.80;40.50
76537;DHT22;65381;51.254;15.592;2022-12-07T00:51:48;20.80;40.50
76537;DHT22;65381;51.254;15.592;2022-12-07T00:54:16;20.80;40.50
76537;DHT22;65381;51.254;15.592;2022-12-07T00:56:43;20.80;40.40
76537;DHT22;65381;51.254;15.592;2022-12-07T00:59:12;20.80;40.50
76537;DHT22;65381;51.254;15.592;2022-12-07T01:01:42;20.80;40.40
76537;DHT22;65381;51.254;15.592;2022-12-07T01:04:09;20.80;40.50
76537;DHT22;65381;51.254;15.592;2022-12-07T01:06:38;20.80;40.40
76537;DHT22;65381;51.254;15.592;2022-12-07T01:09:05;20.80;40.50
76537;DHT22;65381;51.254;15.592;2022-12-07T01:11:33;20.80;40.40
76537;DHT22;65381;51.254;15.592;2022-12-07T01:14:01;20.80;40.40
76537;DHT22;65381;51.254;15.592;2022-12-07T01:16:31;20.80;40.40
76537;DHT22;65381;51.254;15.592;2022-12-07T01:18:59;20.80;40.40
76537;DHT22;65381;51.254;15.592;2022-12-07T01:21:29;20.80;40.40
76537;DHT22;65381;51.254;15.592;2022-12-07T01:23:57;20.80;40.30
76537;DHT22;65381;51.254;15.592;2022-12-07T01:26:25;20.80;40.30
76537;DHT22;65381;51.254;15.592;2022-12-07T01:28:54;20.80;40.50
76537;DHT22;65381;51.254;15.592;2022-12-07T01:31:24;20.80;40.40
76537;DHT22;65381;51.254;15.592;2022-12-07T01:33:54;20.80;40.30
76537;DHT22;65381;51.254;15.592;2022-12-07T01:36:32;20.80;40.40
76537;DHT22;65381;51.254;15.592;2022-12-07T01:39:04;20.80;40.40
76537;DHT22;65381;51.254;15.592;2022-12-07T01:41:34;20.80;40.40
76537;DHT22;65381;51.254;15.592;2022-12-07T01:44:23;20.80;40.40
76537;DHT22;65381;51.254;15.592;2022-12-07T01:46:53;20.80;40.40
76537;DHT22;65381;51.254;15.592;2022-12-07T01:49:38;20.80;40.30
76537;DHT22;65381;51.254;15.592;2022-12-07T01:54:44;20.80;40.30
76537;DHT22;65381;51.254;15.592;2022-12-07T01:57:14;20.80;40.30
76537;DHT22;65381;51.254;15.592;2022-12-07T01:59:43;20.80;40.30
76537;DHT22;65381;51.254;15.592;2022-12-07T02:03:01;20.80;40.30
76537;DHT22;65381;51.254;15.592;2022-12-07T02:05:09;20.80;40.30
76537;DHT22;65381;51.254;15.592;2022-12-07T02:07:37;20.80;40.30
76537;DHT22;65381;51.254;15.592;2022-12-07T02:10:17;20.80;40.40
76537;DHT22;65381;51.254;15.592;2022-12-07T02:12:47;20.80;40.40
76537;DHT22;65381;51.254;15.592;2022-12-07T02:15:16;20.80;40.20
76537;DHT22;65381;51.254;15.592;2022-12-07T02:18:05;20.80;40.20
76537;DHT22;65381;51.254;15.592;2022-12-07T02:23:40;20.80;40.30
76537;DHT22;65381;51.254;15.592;2022-12-07T02:31:56;20.80;40.30
76537;DHT22;65381;51.254;15.592;2022-12-07T02:34:40;20.80;40.30
76537;DHT22;65381;51.254;15.592;2022-12-07T02:42:50;20.80;40.40
76537;DHT22;65381;51.254;15.592;2022-12-07T02:45:21;20.80;40.30
76537;DHT22;65381;51.254;15.592;2022-12-07T02:47:51;20.80;40.30
76537;DHT22;65381;51.254;15.592;2022-12-07T02:50:20;20.80;40.30
76537;DHT22;65381;51.254;15.592;2022-12-07T02:52:48;20.80;40.30
76537;DHT22;65381;51.254;15.592;2022-12-07T02:55:19;20.80;40.30
76537;DHT22;65381;51.254;15.592;2022-12-07T02:58:12;20.70;40.40
76537;DHT22;65381;51.254;15.592;2022-12-07T03:00:59;20.80;40.30
76537;DHT22;65381;51.254;15.592;2022-12-07T03:03:31;20.80;40.40
76537;DHT22;65381;51.254;15.592;2022-12-07T03:06:11;20.80;40.30
76537;DHT22;65381;51.254;15.592;2022-12-07T03:09:20;20.80;40.30
76537;DHT22;65381;51.254;15.592;2022-12-07T03:11:50;20.80;40.40
76537;DHT22;65381;51.254;15.592;2022-12-07T03:14:30;20.80;40.30
76537;DHT22;65381;51.254;15.592;2022-12-07T03:17:18;20.80;40.30
76537;DHT22;65381;51.254;15.592;2022-12-07T03:19:46;20.80;40.30
76537;DHT22;65381;51.254;15.592;2022-12-07T03:22:17;20.80;40.30
76537;DHT22;65381;51.254;15.592;2022-12-07T03:24:50;20.80;40.30
76537;DHT22;65381;51.254;15.592;2022-12-07T03:27:22;20.80;40.30
76537;DHT22;65381;51.254;15.592;2022-12-07T03:29:55;20.80;40.30
76537;DHT22;65381;51.254;15.592;2022-12-07T03:33:36;20.80;40.30
76537;DHT22;65381;51.254;15.592;2022-12-07T03:35:34;20.80;40.30
76537;DHT22;65381;51.254;15.592;2022-12-07T03:39:02;20.80;40.30
76537;DHT22;65381;51.254;15.592;2022-12-07T03:41:14;20.80;40.40
76537;DHT22;65381;51.254;15.592;2022-12-07T03:43:44;20.80;40.20
76537;DHT22;65381;51.254;15.592;2022-12-07T03:46:25;20.80;40.30
76537;DHT22;65381;51.254;15.592;2022-12-07T03:49:04;20.80;40.30
76537;DHT22;65381;51.254;15.592;2022-12-07T03:54:30;20.80;40.30
76537;DHT22;65381;51.254;15.592;2022-12-07T03:56:59;20.80;40.20
76537;DHT22;65381;51.254;15.592;2022-12-07T03:59:29;20.80;40.20
76537;DHT22;65381;51.254;15.592;2022-12-07T04:02:02;20.80;40.20
76537;DHT22;65381;51.254;15.592;2022-12-07T04:04:31;20.80;40.20
76537;DHT22;65381;51.254;15.592;2022-12-07T04:06:59;20.80;40.20
76537;DHT22;65381;51.254;15.592;2022-12-07T04:09:26;20.80;40.20
76537;DHT22;65381;51.254;15.592;2022-12-07T04:11:54;20.80;40.30
76537;DHT22;65381;51.254;15.592;2022-12-07T04:14:21;20.80;40.10
76537;DHT22;65381;51.254;15.592;2022-12-07T04:16:54;20.80;40.20
76537;DHT22;65381;51.254;15.592;2022-12-07T04:19:29;20.80;40.20
76537;DHT22;65381;51.254;15.592;2022-12-07T04:21:58;20.80;40.20
76537;DHT22;65381;51.254;15.592;2022-12-07T04:24:26;20.80;40.20
76537;DHT22;65381;51.254;15.592;2022-12-07T04:26:54;20.80;40.20
76537;DHT22;65381;51.254;15.592;2022-12-07T04:29:21;20.80;40.10
76537;DHT22;65381;51.254;15.592;2022-12-07T04:31:49;20.80;40.10
76537;DHT22;65381;51.254;15.592;2022-12-07T04:34:18;20.80;40.20
76537;DHT22;65381;51.254;15.592;2022-12-07T04:36:46;20.80;40.10
76537;DHT22;65381;51.254;15.592;2022-12-07T04:39:23;20.80;40.20
76537;DHT22;65381;51.254;15.592;2022-12-07T04:41:51;20.80;40.10
76537;DHT22;65381;51.254;15.592;2022-12-07T04:44:19;20.80;40.10
76537;DHT22;65381;51.254;15.592;2022-12-07T04:46:48;20.80;40.10
76537;DHT22;65381;51.254;15.592;2022-12-07T04:49:15;20.80;40.10
76537;DHT22;65381;51.254;15.592;2022-12-07T04:51:43;20.80;40.00
76537;DHT22;65381;51.254;15.592;2022-12-07T04:54:12;20.80;40.00
76537;DHT22;65381;51.254;15.592;2022-12-07T04:56:39;20.80;40.00
76537;DHT22;65381;51.254;15.592;2022-12-07T04:59:07;20.80;40.00
76537;DHT22;65381;51.254;15.592;2022-12-07T05:01:34;20.80;40.10
76537;DHT22;65381;51.254;15.592;2022-12-07T05:04:02;20.80;40.00
76537;DHT22;65381;51.254;15.592;2022-12-07T05:06:30;20.80;40.00
76537;DHT22;65381;51.254;15.592;2022-12-07T05:08:57;20.80;40.00
76537;DHT22;65381;51.254;15.592;2022-12-07T05:11:24;20.80;39.90
76537;DHT22;65381;51.254;15.592;2022-12-07T05:14:18;20.80;40.00
76537;DHT22;65381;51.254;15.592;2022-12-07T05:16:48;20.80;40.10
76537;DHT22;65381;51.254;15.592;2022-12-07T05:19:17;20.80;40.00
76537;DHT22;65381;51.254;15.592;2022-12-07T05:21:46;20.80;40.00
76537;DHT22;65381;51.254;15.592;2022-12-07T05:24:15;20.80;40.00
76537;DHT22;65381;51.254;15.592;2022-12-07T05:26:44;20.80;40.00
76537;DHT22;65381;51.254;15.592;2022-12-07T05:29:14;20.80;39.90
76537;DHT22;65381;51.254;15.592;2022-12-07T05:31:41;20.80;39.90
76537;DHT22;65381;51.254;15.592;2022-12-07T05:34:09;20.80;39.80
76537;DHT22;65381;51.254;15.592;2022-12-07T05:36:37;20.80;39.80
76537;DHT22;65381;51.254;15.592;2022-12-07T05:39:05;20.80;39.80
76537;DHT22;65381;51.254;15.592;2022-12-07T05:41:32;20.80;39.90
76537;DHT22;65381;51.254;15.592;2022-12-07T05:44:14;20.80;39.80
76537;DHT22;65381;51.254;15.592;2022-12-07T05:46:42;20.80;40.00
76537;DHT22;65381;51.254;15.592;2022-12-07T05:49:09;20.80;40.00
76537;DHT22;65381;51.254;15.592;2022-12-07T05:51:37;20.80;40.00
76537;DHT22;65381;51.254;15.592;2022-12-07T05:54:04;20.80;40.40
76537;DHT22;65381;51.254;15.592;2022-12-07T05:56:32;20.80;40.90
76537;DHT22;65381;51.254;15.592;2022-12-07T05:59:00;20.80;41.20
76537;DHT22;65381;51.254;15.592;2022-12-07T06:01:41;20.80;41.40
76537;DHT22;65381;51.254;15.592;2022-12-07T06:04:08;20.80;41.60
76537;DHT22;65381;51.254;15.592;2022-12-07T06:06:36;20.80;41.70
76537;DHT22;65381;51.254;15.592;2022-12-07T06:09:04;20.80;41.70
76537;DHT22;65381;51.254;15.592;2022-12-07T06:11:31;20.80;41.70
76537;DHT22;65381;51.254;15.592;2022-12-07T06:14:13;20.80;41.70
76537;DHT22;65381;51.254;15.592;2022-12-07T06:16:40;20.90;41.90
76537;DHT22;65381;51.254;15.592;2022-12-07T06:19:08;20.90;41.60
76537;DHT22;65381;51.254;15.592;2022-12-07T06:21:35;20.90;41.60
76537;DHT22;65381;51.254;15.592;2022-12-07T06:24:03;20.90;41.50
76537;DHT22;65381;51.254;15.592;2022-12-07T06:26:30;20.90;41.60
76537;DHT22;65381;51.254;15.592;2022-12-07T06:28:58;20.90;41.60
76537;DHT22;65381;51.254;15.592;2022-12-07T06:31:25;20.90;41.60
76537;DHT22;65381;51.254;15.592;2022-12-07T06:34:04;20.90;41.50
76537;DHT22;65381;51.254;15.592;2022-12-07T06:36:32;20.90;41.50
76537;DHT22;65381;51.254;15.592;2022-12-07T06:38:59;20.90;41.50
76537;DHT22;65381;51.254;15.592;2022-12-07T06:41:27;20.90;41.30
76537;DHT22;65381;51.254;15.592;2022-12-07T06:43:55;20.90;41.30
76537;DHT22;65381;51.254;15.592;2022-12-07T06:46:23;20.90;41.20
76537;DHT22;65381;51.254;15.592;2022-12-07T06:48:50;20.90;41.40
76537;DHT22;65381;51.254;15.592;2022-12-07T06:51:18;20.90;41.40
76537;DHT22;65381;51.254;15.592;2022-12-07T06:53:46;20.90;41.40
76537;DHT22;65381;51.254;15.592;2022-12-07T06:56:13;20.90;41.30
76537;DHT22;65381;51.254;15.592;2022-12-07T06:58:41;20.90;41.20
76537;DHT22;65381;51.254;15.592;2022-12-07T07:01:17;20.90;41.20
76537;DHT22;65381;51.254;15.592;2022-12-07T07:03:46;20.90;41.10
76537;DHT22;65381;51.254;15.592;2022-12-07T07:06:13;20.90;41.10
76537;DHT22;65381;51.254;15.592;2022-12-07T07:08:41;20.90;41.10
76537;DHT22;65381;51.254;15.592;2022-12-07T07:11:09;20.90;41.00
76537;DHT22;65381;51.254;15.592;2022-12-07T07:13:37;20.90;41.00
76537;DHT22;65381;51.254;15.592;2022-12-07T07:16:05;20.90;41.00
76537;DHT22;65381;51.254;15.592;2022-12-07T07:18:33;20.90;40.80
76537;DHT22;65381;51.254;15.592;2022-12-07T07:21:01;20.90;40.80
76537;DHT22;65381;51.254;15.592;2022-12-07T07:23:30;20.90;40.80
76537;DHT22;65381;51.254;15.592;2022-12-07T07:25:57;20.90;40.70
76537;DHT22;65381;51.254;15.592;2022-12-07T07:28:26;20.90;40.70
76537;DHT22;65381;51.254;15.592;2022-12-07T07:30:53;20.90;40.70
76537;DHT22;65381;51.254;15.592;2022-12-07T07:33:21;20.90;40.80
76537;DHT22;65381;51.254;15.592;2022-12-07T07:35:48;20.90;40.70
76537;DHT22;65381;51.254;15.592;2022-12-07T07:38:16;20.90;40.80
76537;DHT22;65381;51.254;15.592;2022-12-07T07:40:43;20.90;40.70
76537;DHT22;65381;51.254;15.592;2022-12-07T07:43:11;20.90;40.40
76537;DHT22;65381;51.254;15.592;2022-12-07T07:45:39;20.90;40.50
76537;DHT22;65381;51.254;15.592;2022-12-07T07:48:06;20.90;40.40
76537;DHT22;65381;51.254;15.592;2022-12-07T07:50:34;20.90;40.50
76537;DHT22;65381;51.254;15.592;2022-12-07T07:53:01;20.90;40.50
76537;DHT22;65381;51.254;15.592;2022-12-07T07:55:29;20.90;40.30
76537;DHT22;65381;51.254;15.592;2022-12-07T07:57:56;20.90;40.40
76537;DHT22;65381;51.254;15.592;2022-12-07T08:00:24;20.90;40.30
76537;DHT22;65381;51.254;15.592;2022-12-07T08:02:51;20.90;40.40
76537;DHT22;65381;51.254;15.592;2022-12-07T08:05:19;20.90;40.20
76537;DHT22;65381;51.254;15.592;2022-12-07T08:07:47;20.90;40.30
76537;DHT22;65381;51.254;15.592;2022-12-07T08:10:16;20.90;40.40
76537;DHT22;65381;51.254;15.592;2022-12-07T08:12:43;20.90;40.50
76537;DHT22;65381;51.254;15.592;2022-12-07T08:15:26;20.90;40.70
76537;DHT22;65381;51.254;15.592;2022-12-07T08:17:54;21.00;40.70
76537;DHT22;65381;51.254;15.592;2022-12-07T08:20:22;20.90;41.10
76537;DHT22;65381;51.254;15.592;2022-12-07T08:22:50;21.00;41.10
76537;DHT22;65381;51.254;15.592;2022-12-07T08:25:17;20.90;41.30
76537;DHT22;65381;51.254;15.592;2022-12-07T08:27:45;21.00;41.40
76537;DHT22;65381;51.254;15.592;2022-12-07T08:30:13;21.00;41.60
76537;DHT22;65381;51.254;15.592;2022-12-07T08:32:41;21.00;41.40
76537;DHT22;65381;51.254;15.592;2022-12-07T08:35:08;21.00;41.40
76537;DHT22;65381;51.254;15.592;2022-12-07T08:37:36;21.00;41.30
76537;DHT22;65381;51.254;15.592;2022-12-07T08:40:05;21.00;41.30
76537;DHT22;65381;51.254;15.592;2022-12-07T08:42:32;21.00;41.30
76537;DHT22;65381;51.254;15.592;2022-12-07T08:45:09;21.00;41.50
76537;DHT22;65381;51.254;15.592;2022-12-07T08:47:38;21.00;41.60
76537;DHT22;65381;51.254;15.592;2022-12-07T08:50:08;21.00;42.10
76537;DHT22;65381;51.254;15.592;2022-12-07T08:52:37;21.00;42.60
76537;DHT22;65381;51.254;15.592;2022-12-07T08:55:06;21.00;42.90
76537;DHT22;65381;51.254;15.592;2022-12-07T08:57:36;21.00;43.20
76537;DHT22;65381;51.254;15.592;2022-12-07T09:00:05;21.00;43.80
76537;DHT22;65381;51.254;15.592;2022-12-07T09:02:33;21.00;43.70
76537;DHT22;65381;51.254;15.592;2022-12-07T09:05:00;21.00;43.90
76537;DHT22;65381;51.254;15.592;2022-12-07T09:07:30;21.00;44.00
76537;DHT22;65381;51.254;15.592;2022-12-07T09:09:57;21.00;44.40
76537;DHT22;65381;51.254;15.592;2022-12-07T09:12:25;21.00;44.10
76537;DHT22;65381;51.254;15.592;2022-12-07T09:14:53;21.00;44.10
76537;DHT22;65381;51.254;15.592;2022-12-07T09:17:20;21.00;44.00
76537;DHT22;65381;51.254;15.592;2022-12-07T09:19:48;21.00;43.90
76537;DHT22;65381;51.254;15.592;2022-12-07T09:22:16;21.00;43.90
76537;DHT22;65381;51.254;15.592;2022-12-07T09:24:43;21.00;43.60
76537;DHT22;65381;51.254;15.592;2022-12-07T09:27:13;21.00;43.70
76537;DHT22;65381;51.254;15.592;2022-12-07T09:29:40;21.10;43.90
76537;DHT22;65381;51.254;15.592;2022-12-07T09:32:08;21.10;43.70
76537;DHT22;65381;51.254;15.592;2022-12-07T09:34:38;21.00;43.70
76537;DHT22;65381;51.254;15.592;2022-12-07T09:37:06;21.00;43.60
76537;DHT22;65381;51.254;15.592;2022-12-07T09:39:34;21.10;43.40
76537;DHT22;65381;51.254;15.592;2022-12-07T09:42:06;21.10;43.50
76537;DHT22;65381;51.254;15.592;2022-12-07T09:44:35;21.00;43.30
76537;DHT22;65381;51.254;15.592;2022-12-07T09:47:02;21.00;43.20
76537;DHT22;65381;51.254;15.592;2022-12-07T09:49:32;21.00;43.10
76537;DHT22;65381;51.254;15.592;2022-12-07T09:54:40;21.10;42.90
76537;DHT22;65381;51.254;15.592;2022-12-07T09:57:11;21.10;42.90
76537;DHT22;65381;51.254;15.592;2022-12-07T09:59:39;21.10;42.90
76537;DHT22;65381;51.254;15.592;2022-12-07T10:02:25;21.10;42.90
76537;DHT22;65381;51.254;15.592;2022-12-07T10:04:57;21.10;42.90
76537;DHT22;65381;51.254;15.592;2022-12-07T10:07:25;21.00;42.80
76537;DHT22;65381;51.254;15.592;2022-12-07T10:09:52;21.00;42.80
76537;DHT22;65381;51.254;15.592;2022-12-07T10:12:20;21.00;42.70
76537;DHT22;65381;51.254;15.592;2022-12-07T10:15:13;21.00;42.70
76537;DHT22;65381;51.254;15.592;2022-12-07T10:17:48;21.00;42.70
76537;DHT22;65381;51.254;15.592;2022-12-07T10:22:57;21.00;42.70
76537;DHT22;65381;51.254;15.592;2022-12-07T10:25:29;21.10;42.70
76537;DHT22;65381;51.254;15.592;2022-12-07T10:30:31;21.00;42.50
76537;DHT22;65381;51.254;15.592;2022-12-07T10:33:00;21.10;42.60
76537;DHT22;65381;51.254;15.592;2022-12-07T10:35:29;21.00;42.50
76537;DHT22;65381;51.254;15.592;2022-12-07T10:37:59;21.10;42.50
76537;DHT22;65381;51.254;15.592;2022-12-07T10:40:30;21.00;42.50
76537;DHT22;65381;51.254;15.592;2022-12-07T10:48:39;21.10;42.20
76537;DHT22;65381;51.254;15.592;2022-12-07T10:54:12;21.00;42.30
76537;DHT22;65381;51.254;15.592;2022-12-07T11:18:18;20.90;41.30
76537;DHT22;65381;51.254;15.592;2022-12-07T11:37:02;21.30;44.00
76537;DHT22;65381;51.254;15.592;2022-12-07T11:39:38;21.30;45.40
76537;DHT22;65381;51.254;15.592;2022-12-07T11:42:12;21.20;44.20
76537;DHT22;65381;51.254;15.592;2022-12-07T12:04:22;21.10;42.50
76537;DHT22;65381;51.254;15.592;2022-12-07T12:06:51;21.10;42.20
76537;DHT22;65381;51.254;15.592;2022-12-07T12:18:40;21.10;41.60
76537;DHT22;65381;51.254;15.592;2022-12-07T12:20:54;21.10;41.50
76537;DHT22;65381;51.254;15.592;2022-12-07T12:26:21;21.00;41.60
76537;DHT22;65381;51.254;15.592;2022-12-07T12:28:54;21.10;41.30
76537;DHT22;65381;51.254;15.592;2022-12-07T12:33:57;21.10;41.10
76537;DHT22;65381;51.254;15.592;2022-12-07T12:36:27;21.00;41.00
76537;DHT22;65381;51.254;15.592;2022-12-07T12:39:10;21.10;40.90
76537;DHT22;65381;51.254;15.592;2022-12-07T12:57:36;21.00;40.60
76537;DHT22;65381;51.254;15.592;2022-12-07T13:00:17;21.00;40.50
76537;DHT22;65381;51.254;15.592;2022-12-07T13:03:04;21.00;40.50
76537;DHT22;65381;51.254;15.592;2022-12-07T13:05:39;21.00;40.60
76537;DHT22;65381;51.254;15.592;2022-12-07T13:08:22;21.00;40.40
76537;DHT22;65381;51.254;15.592;2022-12-07T13:11:20;21.00;40.40
76537;DHT22;65381;51.254;15.592;2022-12-07T13:13:52;21.00;40.30
76537;DHT22;65381;51.254;15.592;2022-12-07T13:16:37;21.00;40.50
76537;DHT22;65381;51.254;15.592;2022-12-07T13:25:07;21.00;40.60
76537;DHT22;65381;51.254;15.592;2022-12-07T13:27:39;21.00;40.60
76537;DHT22;65381;51.254;15.592;2022-12-07T13:30:15;21.00;40.30
76537;DHT22;65381;51.254;15.592;2022-12-07T13:32:43;21.00;40.40
76537;DHT22;65381;51.254;15.592;2022-12-07T13:35:35;21.00;40.30
76537;DHT22;65381;51.254;15.592;2022-12-07T13:38:15;21.00;40.50
76537;DHT22;65381;51.254;15.592;2022-12-07T13:41:00;21.00;40.40
76537;DHT22;65381;51.254;15.592;2022-12-07T13:43:27;21.00;40.50
76537;DHT22;65381;51.254;15.592;2022-12-07T13:45:59;20.90;40.40
76537;DHT22;65381;51.254;15.592;2022-12-07T13:48:32;20.90;40.40
76537;DHT22;65381;51.254;15.592;2022-12-07T13:51:01;20.90;40.40
76537;DHT22;65381;51.254;15.592;2022-12-07T13:53:30;20.90;40.40
76537;DHT22;65381;51.254;15.592;2022-12-07T13:55:59;20.90;40.10
76537;DHT22;65381;51.254;15.592;2022-12-07T13:58:29;20.90;40.10
76537;DHT22;65381;51.254;15.592;2022-12-07T14:00:58;20.90;40.10
76537;DHT22;65381;51.254;15.592;2022-12-07T14:03:32;20.90;40.10
76537;DHT22;65381;51.254;15.592;2022-12-07T14:09:21;20.90;39.90
76537;DHT22;65381;51.254;15.592;2022-12-07T14:11:52;20.90;40.00
76537;DHT22;65381;51.254;15.592;2022-12-07T14:14:28;20.80;39.80
76537;DHT22;65381;51.254;15.592;2022-12-07T14:17:20;20.80;39.90
76537;DHT22;65381;51.254;15.592;2022-12-07T14:19:57;20.80;39.80
76537;DHT22;65381;51.254;15.592;2022-12-07T14:22:37;20.80;39.80
76537;DHT22;65381;51.254;15.592;2022-12-07T14:25:18;20.80;39.80
76537;DHT22;65381;51.254;15.592;2022-12-07T14:30:17;20.80;39.80
76537;DHT22;65381;51.254;15.592;2022-12-07T14:32:48;20.80;39.80
76537;DHT22;65381;51.254;15.592;2022-12-07T14:35:17;20.80;39.80
76537;DHT22;65381;51.254;15.592;2022-12-07T14:37:47;20.80;39.80
76537;DHT22;65381;51.254;15.592;2022-12-07T14:40:19;20.80;39.90
76537;DHT22;65381;51.254;15.592;2022-12-07T14:45:30;20.80;39.90
76537;DHT22;65381;51.254;15.592;2022-12-07T14:47:58;20.70;40.10
76537;DHT22;65381;51.254;15.592;2022-12-07T14:50:50;20.70;40.30
76537;DHT22;65381;51.254;15.592;2022-12-07T14:53:43;20.70;40.20
76537;DHT22;65381;51.254;15.592;2022-12-07T14:56:16;20.70;40.30
76537;DHT22;65381;51.254;15.592;2022-12-07T14:58:43;20.70;40.30
76537;DHT22;65381;51.254;15.592;2022-12-07T15:01:11;20.70;40.30
76537;DHT22;65381;51.254;15.592;2022-12-07T15:03:39;20.70;40.30
76537;DHT22;65381;51.254;15.592;2022-12-07T15:06:07;20.70;40.30
76537;DHT22;65381;51.254;15.592;2022-12-07T15:08:35;20.70;40.20
76537;DHT22;65381;51.254;15.592;2022-12-07T15:11:02;20.70;40.40
76537;DHT22;65381;51.254;15.592;2022-12-07T15:13:30;20.70;40.50
76537;DHT22;65381;51.254;15.592;2022-12-07T15:16:13;20.70;40.60
76537;DHT22;65381;51.254;15.592;2022-12-07T15:18:44;20.70;40.90
76537;DHT22;65381;51.254;15.592;2022-12-07T15:21:31;20.70;41.00
76537;DHT22;65381;51.254;15.592;2022-12-07T15:23:59;20.70;41.20
76537;DHT22;65381;51.254;15.592;2022-12-07T15:26:26;20.70;41.40
76537;DHT22;65381;51.254;15.592;2022-12-07T15:28:54;20.70;41.40
76537;DHT22;65381;51.254;15.592;2022-12-07T15:31:21;20.70;41.60
76537;DHT22;65381;51.254;15.592;2022-12-07T15:34:09;20.70;41.50
76537;DHT22;65381;51.254;15.592;2022-12-07T15:36:36;20.70;41.50
76537;DHT22;65381;51.254;15.592;2022-12-07T15:39:05;20.70;41.50
76537;DHT22;65381;51.254;15.592;2022-12-07T15:41:41;20.70;41.50
76537;DHT22;65381;51.254;15.592;2022-12-07T15:44:13;20.60;41.50
76537;DHT22;65381;51.254;15.592;2022-12-07T15:46:57;20.70;41.50
76537;DHT22;65381;51.254;15.592;2022-12-07T15:49:25;20.60;41.50
76537;DHT22;65381;51.254;15.592;2022-12-07T15:51:53;20.60;41.50
76537;DHT22;65381;51.254;15.592;2022-12-07T15:54:26;20.60;41.50
76537;DHT22;65381;51.254;15.592;2022-12-07T15:56:55;20.60;41.50
76537;DHT22;65381;51.254;15.592;2022-12-07T15:59:23;20.60;41.50
76537;DHT22;65381;51.254;15.592;2022-12-07T16:01:50;20.60;41.40
76537;DHT22;65381;51.254;15.592;2022-12-07T16:04:19;20.60;41.40
76537;DHT22;65381;51.254;15.592;2022-12-07T16:06:46;20.60;41.30
76537;DHT22;65381;51.254;15.592;2022-12-07T16:09:13;20.60;41.30
76537;DHT22;65381;51.254;15.592;2022-12-07T16:11:41;20.60;41.20
76537;DHT22;65381;51.254;15.592;2022-12-07T16:14:09;20.60;41.40
76537;DHT22;65381;51.254;15.592;2022-12-07T16:16:37;20.60;41.50
76537;DHT22;65381;51.254;15.592;2022-12-07T16:19:04;20.60;41.60
76537;DHT22;65381;51.254;15.592;2022-12-07T16:21:33;20.60;41.60
76537;DHT22;65381;51.254;15.592;2022-12-07T16:24:01;20.60;41.60
76537;DHT22;65381;51.254;15.592;2022-12-07T16:26:28;20.60;41.60
76537;DHT22;65381;51.254;15.592;2022-12-07T16:28:56;20.60;41.80
76537;DHT22;65381;51.254;15.592;2022-12-07T16:31:26;20.60;42.00
76537;DHT22;65381;51.254;15.592;2022-12-07T16:33:57;20.60;42.00
76537;DHT22;65381;51.254;15.592;2022-12-07T16:36:26;20.60;42.20
76537;DHT22;65381;51.254;15.592;2022-12-07T16:39:14;20.60;42.00
76537;DHT22;65381;51.254;15.592;2022-12-07T16:41:42;20.60;41.80
76537;DHT22;65381;51.254;15.592;2022-12-07T16:44:11;20.60;41.90
76537;DHT22;65381;51.254;15.592;2022-12-07T16:46:40;20.60;41.70
76537;DHT22;65381;51.254;15.592;2022-12-07T16:49:13;20.60;41.60
76537;DHT22;65381;51.254;15.592;2022-12-07T16:51:41;20.60;41.60
76537;DHT22;65381;51.254;15.592;2022-12-07T16:54:12;20.60;41.50
76537;DHT22;65381;51.254;15.592;2022-12-07T16:56:40;20.60;41.50
76537;DHT22;65381;51.254;15.592;2022-12-07T16:59:08;20.60;41.30
76537;DHT22;65381;51.254;15.592;2022-12-07T17:01:36;20.60;41.40
76537;DHT22;65381;51.254;15.592;2022-12-07T17:04:05;20.60;41.20
76537;DHT22;65381;51.254;15.592;2022-12-07T17:06:32;20.60;41.20
76537;DHT22;65381;51.254;15.592;2022-12-07T17:09:00;20.50;41.30
76537;DHT22;65381;51.254;15.592;2022-12-07T17:11:29;20.50;41.10
76537;DHT22;65381;51.254;15.592;2022-12-07T17:14:00;20.50;41.20
76537;DHT22;65381;51.254;15.592;2022-12-07T17:16:56;20.50;41.00
76537;DHT22;65381;51.254;15.592;2022-12-07T17:19:24;20.50;41.10
76537;DHT22;65381;51.254;15.592;2022-12-07T17:21:52;20.50;41.20
76537;DHT22;65381;51.254;15.592;2022-12-07T17:24:20;20.50;41.20
76537;DHT22;65381;51.254;15.592;2022-12-07T17:26:48;20.50;41.10
76537;DHT22;65381;51.254;15.592;2022-12-07T17:29:17;20.50;41.10
76537;DHT22;65381;51.254;15.592;2022-12-07T17:31:46;20.50;41.20
76537;DHT22;65381;51.254;15.592;2022-12-07T17:34:18;20.50;41.20
76537;DHT22;65381;51.254;15.592;2022-12-07T17:36:46;20.50;41.10
76537;DHT22;65381;51.254;15.592;2022-12-07T17:39:16;20.50;41.20
76537;DHT22;65381;51.254;15.592;2022-12-07T17:41:44;20.50;41.60
76537;DHT22;65381;51.254;15.592;2022-12-07T17:44:28;20.50;42.70
76537;DHT22;65381;51.254;15.592;2022-12-07T17:46:56;20.50;44.00
76537;DHT22;65381;51.254;15.592;2022-12-07T17:49:26;20.50;45.10
76537;DHT22;65381;51.254;15.592;2022-12-07T17:51:54;20.50;46.00
76537;DHT22;65381;51.254;15.592;2022-12-07T17:54:36;20.50;46.20
76537;DHT22;65381;51.254;15.592;2022-12-07T17:57:04;20.50;46.60
76537;DHT22;65381;51.254;15.592;2022-12-07T17:59:31;20.50;47.20
76537;DHT22;65381;51.254;15.592;2022-12-07T18:01:59;20.50;47.50